Terminal Aerodrome Forecast
Issued by NWS

Home | Current Version | Previous Version | Text Only | Print | Product List | Glossary On
Versions: 1 2 3 4 5 6 7 8 9 10 11 12 13 14 15 16 17
000
FTUS45 KREV 211136
TAFMMH
TAF
KMMH 211136Z 2112/2212 28008KT P6SM SCT200
     FM211600 12006KT P6SM SCT120 BKN200
     FM220000 28008KT P6SM SCT080 OVC140=

USA.gov is the U.S. government's official web portal to all federal, state and local government web resources and services.